Terminal Aerodrome Forecast
Issued by NWS

Home | Current Version | Previous Version | Text Only | Print | Product List | Glossary On
Versions: 1 2 3 4 5 6 7 8 9 10 11 12 13 14 15
000
FTPA31 PHFO 231700
TAFMDY
TAF
PMDY 231736Z 2318/2418 19008KT P6SM VCSH SCT020 BKN050
      TEMPO 2323/2403 3SM SHRA BR BKN020
     FM240800 27006KT P6SM VCSH SCT020 BKN040
      AMD LTD TO CLD AND WIND=

USA.gov is the U.S. government's official web portal to all federal, state and local government web resources and services.